Grover, North Carolina
Current Conditions -  °F | °C
As of 3:35 AM on Thursday 18 Dec 2014 (Local Time) from KEHO Reporting Station
Clear Clear  
Wind Chill: 27°   Ceiling: Unl
Heat Index: 32°   Visibility: 10mi
Dew Point: 30°   Wind: 5mph
Humidity: 93%   Direction: 50°NE
Pressure: 30.1"   Gusts: NA
Location:  35.17°N, 81.45°W
Report Text: KEHO 180835Z AUTO 05004KT 10SM CLR 00/M01 A3010 RMK AO2 T00001010
Loading
Personal Weather Stations






























Interactive Weather Map New forecast layout! Learn more

10-Day Weather Forecast

Advertisements
Track Severe Weather on mobile